Time;durP1;ratioP1;P1;durP2;ratioP2;P2;SDS_P1;SDS_P2;PMS_P1;PMS_P2;Temp;Humidity;BMP_temperature;BMP_pressure;BME280_temperature;BME280_humidity;BME280_pressure;Samples;Min_cycle;Max_cycle;Signal;HPM_P1;HPM_P2
2023/05/08 00:00:03;;;;;;;3.88;2.38;;;;;;;13.03;100.00;100673.97;5010380;28;20151;-77
2023/05/08 00:02:29;;;;;;;5.47;3.35;;;;;;;13.13;100.00;100677.44;5011416;28;20077;-77
2023/05/08 00:04:55;;;;;;;9.57;2.35;;;;;;;13.50;100.00;100762.44;5025124;28;20409;-79
2023/05/08 00:07:20;;;;;;;5.45;2.47;;;;;;;12.96;100.00;100685.44;5021776;28;20172;-80
2023/05/08 00:09:46;;;;;;;7.50;2.00;;;;;;;13.18;100.00;100820.59;5012202;28;20053;-75
2023/05/08 00:12:11;;;;;;;5.45;1.95;;;;;;;12.53;100.00;100745.31;5021197;28;20098;-76
2023/05/08 00:14:37;;;;;;;9.35;2.50;;;;;;;12.07;100.00;100677.88;5021390;28;20714;-76
2023/05/08 00:17:02;;;;;;;6.03;2.00;;;;;;;12.61;100.00;100768.09;5014530;28;20038;-75
2023/05/08 00:19:28;;;;;;;4.55;2.20;;;;;;;12.30;100.00;100703.25;5016063;28;20046;-75
2023/05/08 00:21:53;;;;;;;4.57;2.20;;;;;;;11.96;100.00;100659.50;5019527;28;20036;-74
2023/05/08 00:24:19;;;;;;;5.50;2.58;;;;;;;12.31;100.00;100749.72;5013064;28;20061;-76
2023/05/08 00:26:44;;;;;;;3.50;2.13;;;;;;;11.78;100.00;100659.50;5010652;28;20414;-74
2023/05/08 00:29:10;;;;;;;3.95;2.28;;;;;;;12.15;100.00;100764.66;5020251;28;20111;-71
2023/05/08 00:31:36;;;;;;;4.25;2.22;;;;;;;11.90;100.00;100759.41;5016174;28;20748;-73
2023/05/08 00:34:01;;;;;;;3.92;2.40;;;;;;;11.26;100.00;100663.00;5028769;28;20036;-73
2023/05/08 00:36:27;;;;;;;6.50;3.13;;;;;;;11.80;100.00;100755.88;5036454;28;20111;-74
2023/05/08 00:38:53;;;;;;;3.25;2.00;;;;;;;11.62;100.00;100735.72;5027922;28;20041;-74
2023/05/08 00:41:18;;;;;;;7.10;2.83;;;;;;;11.32;100.00;100660.34;5023442;28;20038;-74
2023/05/08 00:43:44;;;;;;;3.38;2.05;;;;;;;11.90;100.00;100756.78;5026577;28;20488;-75
2023/05/08 00:46:10;;;;;;;3.67;2.60;;;;;;;11.77;100.00;100731.31;5011067;28;20025;-73
2023/05/08 00:48:37;;;;;;;6.82;3.72;;;;;;;11.55;100.00;100649.84;5016833;28;20037;-73
2023/05/08 00:51:05;;;;;;;5.50;2.83;;;;;;;12.38;100.00;100770.75;5008627;28;20438;-74
2023/05/08 00:53:34;;;;;;;3.78;2.30;;;;;;;12.46;100.00;100752.34;5018028;28;20489;-74
2023/05/08 00:56:00;;;;;;;6.10;2.13;;;;;;;11.75;100.00;100668.25;5015058;28;20054;-74
2023/05/08 00:58:27;;;;;;;5.78;2.53;;;;;;;12.07;100.00;100790.09;5008792;28;20046;-74
2023/05/08 01:00:54;;;;;;;4.65;1.92;;;;;;;11.96;100.00;100788.38;5010317;28;20056;-74
2023/05/08 01:03:21;;;;;;;3.28;1.77;;;;;;;11.96;100.00;100793.63;5014690;28;20045;-74
2023/05/08 01:05:47;;;;;;;3.65;1.95;;;;;;;11.71;100.00;100761.13;5015196;28;20189;-74
2023/05/08 01:08:13;;;;;;;4.68;2.08;;;;;;;11.65;100.00;100757.63;5014492;28;20199;-72
2023/05/08 01:11:05;;;;;;;4.20;2.17;;;;;;;11.94;100.00;100797.09;5007728;28;20136;-74
2023/05/08 01:13:45;;;;;;;4.65;2.55;;;;;;;11.90;100.00;100771.69;5016419;28;20124;-73
2023/05/08 01:16:15;;;;;;;7.90;2.30;;;;;;;11.26;100.00;100648.94;5009492;28;20038;-73
2023/05/08 01:18:49;;;;;;;3.22;2.28;;;;;;;11.82;100.00;100726.94;5020032;28;20045;-73
2023/05/08 01:21:26;;;;;;;4.18;2.47;;;;;;;12.10;100.00;100734.84;5002464;28;20069;-74
2023/05/08 01:24:07;;;;;;;3.88;1.98;;;;;;;12.00;100.00;100687.53;5010090;28;20050;-73
2023/05/08 01:27:10;;;;;;;5.88;3.22;;;;;;;12.40;100.00;100745.31;5017685;28;20407;-74
2023/05/08 01:30:06;;;;;;;3.10;2.20;;;;;;;12.49;100.00;100743.56;5016928;28;20137;-75
2023/05/08 01:32:41;;;;;;;3.15;2.45;;;;;;;12.29;100.00;100726.06;5004632;28;20035;-72
2023/05/08 01:35:36;;;;;;;3.97;2.00;;;;;;;12.27;100.00;100756.78;5007607;28;20561;-73
2023/05/08 01:38:20;;;;;;;4.50;2.30;;;;;;;11.99;100.00;100769.94;5012727;28;20132;-73
2023/05/08 01:40:45;;;;;;;5.20;2.42;;;;;;;11.97;100.00;100781.34;4998709;28;20050;-74
2023/05/08 01:43:31;;;;;;;4.88;1.92;;;;;;;12.08;100.00;100778.69;5010478;28;20033;-74
2023/05/08 01:46:01;;;;;;;3.63;2.15;;;;;;;11.87;100.00;100774.28;4995708;28;20033;-72
2023/05/08 01:48:34;;;;;;;2.80;1.83;;;;;;;11.86;100.00;100790.94;5012456;28;20034;-73
2023/05/08 01:51:13;;;;;;;3.35;2.33;;;;;;;11.85;100.00;100795.31;5008205;28;20070;-74
2023/05/08 01:53:43;;;;;;;2.97;1.75;;;;;;;11.11;100.00;100663.81;5037522;28;20050;-75
2023/05/08 01:56:16;;;;;;;5.30;2.30;;;;;;;11.03;100.00;100652.44;5022058;28;20061;-73
2023/05/08 01:58:42;;;;;;;3.63;1.98;;;;;;;11.87;100.00;100809.38;5018058;28;20045;-76
2023/05/08 02:01:11;;;;;;;5.05;2.65;;;;;;;11.76;100.00;100806.69;5006986;28;20125;-76
2023/05/08 02:03:40;;;;;;;3.53;2.60;;;;;;;11.26;100.00;100710.28;5020293;28;20030;-74
2023/05/08 02:06:08;;;;;;;3.63;1.90;;;;;;;11.11;100.00;100678.72;5018501;28;20054;-74
2023/05/08 02:08:35;;;;;;;5.10;2.72;;;;;;;10.96;100.00;100659.41;5009958;28;20053;-73
2023/05/08 02:11:02;;;;;;;6.55;2.83;;;;;;;11.72;100.00;100790.91;5000544;28;20045;-71
2023/05/08 02:13:29;;;;;;;7.65;2.05;;;;;;;11.07;100.00;100690.94;5048976;28;20045;-74
2023/05/08 02:15:56;;;;;;;3.83;2.45;;;;;;;11.06;100.00;100706.72;5007858;28;20046;-74
2023/05/08 02:18:24;;;;;;;4.65;2.00;;;;;;;11.57;100.00;100803.16;5018301;28;20036;-75
2023/05/08 02:20:51;;;;;;;5.90;2.95;;;;;;;11.60;100.00;100795.28;5014231;28;20092;-74
2023/05/08 02:23:18;;;;;;;7.07;1.85;;;;;;;11.08;100.00;100705.84;5010917;28;20072;-73
2023/05/08 02:25:46;;;;;;;5.55;2.90;;;;;;;11.55;100.00;100773.38;5016534;28;20045;-73
2023/05/08 02:28:11;;;;;;;3.63;1.58;;;;;;;11.50;100.00;100711.19;5012085;28;20482;-73
2023/05/08 02:30:39;;;;;;;3.78;2.10;;;;;;;11.43;100.00;100651.63;5019348;28;20042;-74
2023/05/08 02:33:09;;;;;;;5.25;2.53;;;;;;;11.92;100.00;100717.34;5019138;28;20092;-72
2023/05/08 02:35:36;;;;;;;4.63;2.20;;;;;;;12.10;100.00;100762.03;5013995;28;20038;-74
2023/05/08 02:38:09;;;;;;;3.08;2.13;;;;;;;11.91;100.00;100713.81;5010979;28;20156;-72
2023/05/08 02:40:37;;;;;;;3.65;1.83;;;;;;;12.17;100.00;100729.56;5004770;28;20117;-74
2023/05/08 02:43:03;;;;;;;4.38;2.10;;;;;;;12.10;100.00;100712.06;5005219;28;20049;-74
2023/05/08 02:45:56;;;;;;;3.08;2.15;;;;;;;11.63;100.00;100613.03;5007349;28;20116;-77
2023/05/08 02:48:29;;;;;;;4.75;2.22;;;;;;;11.70;100.00;100627.06;5004470;28;20063;-73
2023/05/08 02:51:01;;;;;;;4.75;2.47;;;;;;;12.33;100.00;100748.84;5014964;28;20137;-74
2023/05/08 02:53:52;;;;;;;4.47;1.90;;;;;;;12.21;100.00;100764.66;5034663;28;20067;-76
2023/05/08 02:56:26;;;;;;;4.13;2.53;;;;;;;11.86;100.00;100773.41;5027443;28;20052;-74
2023/05/08 02:58:58;;;;;;;3.92;2.33;;;;;;;11.02;100.00;100666.44;5037078;28;20118;-73
2023/05/08 03:01:40;;;;;;;4.20;2.33;;;;;;;11.72;100.00;100797.03;5039697;28;20056;-73
2023/05/08 03:04:11;;;;;;;8.50;2.53;;;;;;;11.62;100.00;100767.25;5038397;28;20033;-74
2023/05/08 03:06:44;;;;;;;3.55;1.85;;;;;;;10.76;100.00;100638.34;5021483;28;20120;-74
2023/05/08 03:09:17;;;;;;;4.05;2.22;;;;;;;10.81;100.00;100622.63;5029499;28;20041;-73
2023/05/08 03:11:46;;;;;;;3.83;2.47;;;;;;;10.76;100.00;100642.72;5029806;28;20049;-74
2023/05/08 03:14:15;;;;;;;5.30;2.28;;;;;;;11.39;100.00;100734.81;5040153;28;20136;-74
2023/05/08 03:16:43;;;;;;;4.05;2.65;;;;;;;10.34;100.00;100524.53;5039322;28;20040;-74
2023/05/08 03:19:33;;;;;;;5.05;2.63;;;;;;;10.75;100.00;100606.88;5030001;28;20107;-77
2023/05/08 03:22:00;;;;;;;4.38;2.22;;;;;;;11.10;100.00;100724.25;5037852;28;20472;-75
2023/05/08 03:24:28;;;;;;;5.45;2.47;;;;;;;11.25;100.00;100747.03;5036757;28;20068;-73
2023/05/08 03:26:55;;;;;;;5.47;3.45;;;;;;;10.72;100.00;100643.59;5047944;28;20857;-74
2023/05/08 03:29:24;;;;;;;4.32;2.90;;;;;;;11.11;100.00;100737.34;5035945;28;20397;-74
2023/05/08 03:31:51;;;;;;;5.95;3.58;;;;;;;11.32;100.00;100741.78;5038852;28;20415;-73
2023/05/08 03:34:18;;;;;;;4.38;2.85;;;;;;;11.48;100.00;100721.69;5032765;28;20048;-74
2023/05/08 03:36:44;;;;;;;4.40;2.90;;;;;;;11.55;100.00;100747.09;5031045;28;20033;-73
2023/05/08 03:39:11;;;;;;;4.35;2.47;;;;;;;11.36;100.00;100725.16;5038017;28;20049;-74
2023/05/08 03:41:36;;;;;;;4.15;1.80;;;;;;;11.53;100.00;100750.59;5040201;28;20512;-74
2023/05/08 03:44:03;;;;;;;4.38;2.58;;;;;;;10.87;100.00;100634.91;5031966;28;20120;-72
2023/05/08 03:46:30;;;;;;;4.25;2.92;;;;;;;11.48;100.00;100768.09;5027222;28;20036;-76
2023/05/08 03:48:59;;;;;;;4.30;2.28;;;;;;;11.39;100.00;100763.69;5031341;28;20030;-74
2023/05/08 03:51:26;;;;;;;6.32;2.33;;;;;;;10.55;100.00;100640.91;5041795;28;20033;-75
2023/05/08 03:53:52;;;;;;;4.78;2.65;;;;;;;11.56;100.00;100747.97;5022364;28;20069;-74
2023/05/08 03:56:17;;;;;;;4.55;2.85;;;;;;;11.41;100.00;100699.75;5016855;28;20160;-73
2023/05/08 03:59:04;;;;;;;5.65;2.80;;;;;;;11.72;100.00;100770.75;5023657;28;20110;-73
2023/05/08 04:01:47;;;;;;;5.70;3.03;;;;;;;10.83;100.00;100599.88;5035843;28;20091;-74
2023/05/08 04:04:20;;;;;;;6.00;3.13;;;;;;;11.94;100.00;100753.28;5026803;28;20052;-73
2023/05/08 04:07:11;;;;;;;3.72;2.70;;;;;;;11.49;100.00;100665.59;5030900;28;20037;-75
2023/05/08 04:09:59;;;;;;;5.30;3.38;;;;;;;12.02;100.00;100771.69;5034568;28;20076;-75
2023/05/08 04:12:44;;;;;;;4.05;2.65;;;;;;;11.47;100.00;100667.38;5015400;28;20079;-74
2023/05/08 04:15:16;;;;;;;5.38;2.22;;;;;;;11.58;100.00;100706.78;5037720;28;20486;-74
2023/05/08 04:17:48;;;;;;;3.78;2.65;;;;;;;10.83;100.00;100665.50;5034995;28;20049;-74
2023/05/08 04:20:18;;;;;;;5.50;2.63;;;;;;;11.68;100.00;100791.78;5036456;28;20546;-73
2023/05/08 04:22:45;;;;;;;3.58;2.55;;;;;;;11.89;100.00;100751.53;5030761;28;20038;-73
2023/05/08 04:25:13;;;;;;;5.15;2.70;;;;;;;11.31;100.00;100631.47;5028483;28;20028;-74
2023/05/08 04:27:40;;;;;;;5.18;3.15;;;;;;;12.15;100.00;100764.66;5021858;28;20573;-74
2023/05/08 04:30:07;;;;;;;4.43;2.75;;;;;;;12.18;100.00;100783.97;5011720;28;20401;-72
2023/05/08 04:32:34;;;;;;;7.03;3.50;;;;;;;12.03;100.00;100734.88;5007923;28;20034;-74
2023/05/08 04:35:00;;;;;;;5.00;3.17;;;;;;;11.84;100.00;100783.03;5028131;28;20094;-74
2023/05/08 04:37:27;;;;;;;4.60;2.88;;;;;;;11.13;100.00;100646.31;5036294;28;20091;-73
2023/05/08 04:39:53;;;;;;;7.72;3.72;;;;;;;12.13;100.00;100785.72;5028290;28;20037;-73
2023/05/08 04:42:19;;;;;;;6.45;3.40;;;;;;;12.23;100.00;100791.84;5024803;28;20092;-73
2023/05/08 04:44:46;;;;;;;5.60;3.03;;;;;;;11.20;100.00;100683.97;5024414;28;20488;-74
2023/05/08 04:47:12;;;;;;;5.60;2.67;;;;;;;11.25;100.00;100650.72;5031979;28;20071;-75
2023/05/08 04:49:37;;;;;;;4.45;2.72;;;;;;;11.10;100.00;100641.06;5029604;28;20492;-73
2023/05/08 04:52:03;;;;;;;7.53;3.63;;;;;;;11.76;100.00;100732.22;5040098;28;20029;-73
2023/05/08 04:54:28;;;;;;;3.67;2.67;;;;;;;12.08;100.00;100778.69;5020258;28;20026;-73
2023/05/08 04:56:54;;;;;;;5.95;2.53;;;;;;;11.88;100.00;100760.31;5010050;28;20579;-72
2023/05/08 04:59:19;;;;;;;5.68;3.08;;;;;;;11.34;100.00;100702.41;5019002;28;20073;-74
2023/05/08 05:01:46;;;;;;;4.78;2.85;;;;;;;11.59;100.00;100790.91;5027134;28;20099;-73
2023/05/08 05:04:12;;;;;;;7.97;3.25;;;;;;;11.87;100.00;100738.41;5028154;28;20655;-74
2023/05/08 05:06:37;;;;;;;4.90;3.10;;;;;;;11.34;100.00;100642.84;5034049;28;20031;-74
2023/05/08 05:09:04;;;;;;;8.30;4.35;;;;;;;12.41;100.00;100762.88;5014845;28;20045;-73
2023/05/08 05:11:29;;;;;;;6.78;3.47;;;;;;;12.49;100.00;100772.53;5001315;28;20137;-73
2023/05/08 05:13:55;;;;;;;5.15;3.10;;;;;;;12.48;100.00;100778.66;5022324;28;20072;-73
2023/05/08 05:16:20;;;;;;;4.70;2.55;;;;;;;12.54;100.00;100779.50;5052302;28;20511;-72
2023/05/08 05:18:46;;;;;;;9.73;4.45;;;;;;;12.66;100.00;100782.09;5027508;28;20029;-74
2023/05/08 05:21:12;;;;;;;5.63;3.85;;;;;;;12.11;100.00;100731.38;5025696;28;20091;-72
2023/05/08 05:23:37;;;;;;;4.63;2.58;;;;;;;11.75;100.00;100662.09;5017596;28;20033;-74
2023/05/08 05:26:03;;;;;;;7.15;2.83;;;;;;;12.14;100.00;100712.94;5010655;28;20555;-74
2023/05/08 05:28:29;;;;;;;17.55;5.75;;;;;;;12.11;100.00;100690.16;5029026;28;20239;-73
2023/05/08 05:30:54;;;;;;;6.75;2.97;;;;;;;12.70;100.00;100795.28;5032073;28;20041;-71
2023/05/08 05:33:20;;;;;;;4.97;2.80;;;;;;;12.07;100.00;100672.59;5032447;28;20770;-75
2023/05/08 05:35:46;;;;;;;48.35;17.42;;;;;;;12.83;100.00;100812.78;5025080;28;20045;-74
2023/05/08 05:38:11;;;;;;;10.02;4.18;;;;;;;12.12;100.00;100702.41;5024952;28;20421;-78
2023/05/08 05:40:36;;;;;;;4.75;2.65;;;;;;;12.97;100.00;100800.47;5030883;28;20036;-75
2023/05/08 05:43:02;;;;;;;5.30;3.00;;;;;;;12.29;100.00;100678.72;5038777;28;20033;-72
2023/05/08 05:45:28;;;;;;;10.15;3.38;;;;;;;12.57;100.00;100715.44;5022672;28;20034;-74
2023/05/08 05:47:53;;;;;;;8.75;5.47;;;;;;;12.67;100.00;100730.34;5028589;28;20481;-74
2023/05/08 05:50:20;;;;;;;7.80;2.88;;;;;;;13.25;100.00;100798.59;5027017;28;20041;-72
2023/05/08 05:52:45;;;;;;;18.25;9.32;;;;;;;13.08;100.00;100695.91;5025564;28;20072;-71
2023/05/08 05:55:11;;;;;;;11.52;4.38;;;;;;;13.65;100.00;100803.69;5023349;28;20808;-71
2023/05/08 05:57:36;;;;;;;5.07;3.25;;;;;;;11.04;100.00;100401.22;5030194;28;20489;-72
2023/05/08 06:00:03;;;;;;;11.05;4.85;;;;;;;13.81;100.00;100837.84;5026124;28;20046;-73
2023/05/08 06:02:29;;;;;;;7.00;2.78;;;;;;;13.70;100.00;100832.66;5027180;28;20095;-72
2023/05/08 06:04:55;;;;;;;5.88;3.33;;;;;;;13.34;100.00;100754.66;5016844;28;20045;-71
2023/05/08 06:07:21;;;;;;;5.35;2.83;;;;;;;14.12;100.00;100754.09;5009122;28;20045;-72
2023/05/08 06:09:47;;;;;;;4.65;2.30;;;;;;;13.93;100.00;100692.69;5005942;28;20066;-71
2023/05/08 06:12:12;;;;;;;3.08;1.98;;;;;;;14.76;100.00;100822.13;5016048;28;20408;-74
2023/05/08 06:14:38;;;;;;;3.60;2.10;;;;;;;14.96;100.00;100763.78;5034903;28;20052;-70
2023/05/08 06:17:03;;;;;;;4.32;2.67;;;;;;;15.46;100.00;100763.13;5028458;28;20049;-72
2023/05/08 06:19:28;;;;;;;14.75;6.05;;;;;;;14.57;100.00;100742.19;5032037;28;20068;-71
2023/05/08 06:21:54;;;;;;;11.10;5.13;;;;;;;15.51;100.00;100745.41;5028743;28;20033;-70
2023/05/08 06:24:19;;;;;;;7.93;3.28;;;;;;;16.01;100.00;100762.25;5029187;28;20030;-71
2023/05/08 06:26:48;;;;;;;7.38;3.53;;;;;;;15.96;100.00;100846.16;5041305;28;20129;-72
2023/05/08 06:29:13;;;;;;;6.53;2.85;;;;;;;15.63;100.00;100872.19;5027837;28;20119;-71
2023/05/08 06:31:39;;;;;;;3.83;2.00;;;;;;;14.67;100.00;100744.75;5031478;28;20046;-75
2023/05/08 06:34:04;;;;;;;3.28;2.20;;;;;;;15.69;100.00;100856.25;5030595;28;20037;-73
2023/05/08 06:36:30;;;;;;;4.03;2.03;;;;;;;14.89;100.00;100830.81;5038760;28;20486;-71
2023/05/08 06:38:56;;;;;;;3.08;2.05;;;;;;;15.69;100.00;100866.81;5008923;28;20074;-73
2023/05/08 06:41:21;;;;;;;6.82;3.28;;;;;;;16.07;100.00;100864.56;5008785;28;20124;-72
2023/05/08 06:43:47;;;;;;;6.80;3.67;;;;;;;15.14;100.00;100797.00;5017377;28;20272;-71
2023/05/08 06:46:12;;;;;;;5.53;2.92;;;;;;;14.53;100.00;100814.38;5027310;28;20033;-74
2023/05/08 06:48:38;;;;;;;3.38;1.88;;;;;;;13.99;100.00;100776.19;5035456;28;20132;-73
2023/05/08 06:51:03;;;;;;;4.72;3.05;;;;;;;13.96;100.00;100818.44;5031355;28;20409;-73
2023/05/08 06:53:29;;;;;;;7.28;2.53;;;;;;;13.36;100.00;100756.38;5037647;28;20098;-72
2023/05/08 06:55:56;;;;;;;7.15;2.80;;;;;;;13.52;100.00;100752.78;5034029;28;20045;-71
2023/05/08 06:58:22;;;;;;;5.82;2.38;;;;;;;13.65;100.00;100884.53;5030810;28;20412;-71
2023/05/08 07:00:47;;;;;;;3.97;2.55;;;;;;;13.36;100.00;100863.59;5040533;28;20033;-71
2023/05/08 07:03:13;;;;;;;9.60;2.83;;;;;;;12.66;100.00;100783.88;5039437;28;20544;-70
2023/05/08 07:05:38;;;;;;;3.78;2.00;;;;;;;12.22;100.00;100800.59;5028521;28;20053;-72
2023/05/08 07:08:04;;;;;;;3.80;2.05;;;;;;;12.06;100.00;100801.47;5036511;28;20054;-72
2023/05/08 07:10:29;;;;;;;4.00;2.65;;;;;;;12.44;100.00;100891.84;5027295;28;20723;-70
2023/05/08 07:12:54;;;;;;;3.75;2.20;;;;;;;11.99;100.00;100738.38;5042003;28;20033;-72
2023/05/08 07:15:20;;;;;;;6.20;2.40;;;;;;;12.54;100.00;100758.47;5037860;28;20073;-72
2023/05/08 07:17:46;;;;;;;5.07;4.15;;;;;;;13.41;100.00;100885.53;5025643;28;20490;-71
2023/05/08 07:20:12;;;;;;;7.75;3.60;;;;;;;12.69;100.00;100865.50;5014564;28;20041;-72
2023/05/08 07:22:37;;;;;;;4.82;2.17;;;;;;;13.34;100.00;100886.44;5013676;28;20054;-71
2023/05/08 07:25:03;;;;;;;5.70;3.10;;;;;;;13.15;100.00;100896.13;5021975;28;20045;-71
2023/05/08 07:27:29;;;;;;;4.68;2.97;;;;;;;13.47;100.00;100896.94;5033447;28;20124;-71
2023/05/08 07:29:56;;;;;;;4.53;2.70;;;;;;;12.95;100.00;100904.97;5039024;28;20512;-71
2023/05/08 07:32:21;;;;;;;5.05;2.67;;;;;;;13.23;100.00;100903.13;5030627;28;20065;-72
2023/05/08 07:34:47;;;;;;;4.78;2.75;;;;;;;13.26;100.00;100881.16;5038188;28;20434;-71
2023/05/08 07:37:12;;;;;;;3.80;2.45;;;;;;;13.36;100.00;100874.13;5027723;28;20033;-72
2023/05/08 07:39:38;;;;;;;4.72;3.05;;;;;;;13.52;100.00;100870.53;5014932;28;20037;-73
2023/05/08 07:42:03;;;;;;;4.80;3.15;;;;;;;12.68;100.00;100776.84;5007790;28;20501;-73
2023/05/08 07:44:32;;;;;;;6.18;3.45;;;;;;;12.51;100.00;100749.72;5020919;28;20042;-73
2023/05/08 07:46:57;;;;;;;4.88;2.67;;;;;;;13.53;100.00;100888.09;5030683;28;20042;-72
2023/05/08 07:49:23;;;;;;;6.15;3.47;;;;;;;13.18;100.00;100809.16;5034696;28;20043;-73
2023/05/08 07:51:48;;;;;;;6.97;3.20;;;;;;;14.06;100.00;100902.75;5038651;28;20119;-73
2023/05/08 07:54:14;;;;;;;5.00;2.95;;;;;;;13.76;100.00;100898.53;5032371;28;20042;-73
2023/05/08 07:56:40;;;;;;;5.97;3.35;;;;;;;14.04;100.00;100864.94;5018729;28;20072;-72
2023/05/08 07:59:06;;;;;;;3.88;2.45;;;;;;;14.09;100.00;100900.13;5027590;28;20079;-72
2023/05/08 08:01:31;;;;;;;4.47;2.33;;;;;;;13.45;100.00;100792.38;5023384;28;20091;-73
2023/05/08 08:03:57;;;;;;;3.90;1.98;;;;;;;14.17;100.00;100891.28;5008193;28;20492;-73
2023/05/08 08:06:22;;;;;;;4.82;2.20;;;;;;;14.17;100.00;100922.97;5009694;28;20817;-72
2023/05/08 08:08:47;;;;;;;4.72;3.00;;;;;;;13.36;100.00;100801.19;5023476;28;20049;-72
2023/05/08 08:11:13;;;;;;;2.22;1.55;;;;;;;14.92;100.00;100795.53;5018774;28;20057;-73
2023/05/08 08:13:38;;;;;;;4.00;2.22;;;;;;;15.08;100.00;100913.41;5022683;28;20072;-73
2023/05/08 08:16:05;;;;;;;6.45;4.00;;;;;;;14.74;100.00;100913.72;5022109;28;20037;-74
2023/05/08 08:18:37;;;;;;;8.43;4.10;;;;;;;15.25;100.00;100902.63;5034327;28;20341;-73
2023/05/08 08:21:06;;;;;;;18.77;13.38;;;;;;;15.67;100.00;100916.22;5019765;28;20045;-72
2023/05/08 08:23:32;;;;;;;6.65;3.63;;;;;;;14.64;100.00;100901.50;5011660;28;20444;-72
2023/05/08 08:25:57;;;;;;;6.40;3.05;;;;;;;14.50;100.00;100856.69;5007401;28;20064;-73
2023/05/08 08:28:22;;;;;;;4.28;2.78;;;;;;;12.58;100.00;100809.34;5010077;28;20442;-71
2023/05/08 08:30:48;;;;;;;5.18;3.00;;;;;;;13.41;100.00;100833.66;5010565;28;20132;-77
2023/05/08 08:33:14;;;;;;;5.65;2.88;;;;;;;12.77;100.00;100790.00;5000099;28;20053;-77
2023/05/08 08:35:39;;;;;;;7.60;3.65;;;;;;;12.39;100.00;100775.16;5020638;28;20053;-74
2023/05/08 08:38:05;;;;;;;7.57;4.03;;;;;;;12.46;100.00;100821.66;5003086;28;20090;-76
2023/05/08 08:40:30;;;;;;;6.75;3.42;;;;;;;12.05;100.00;100758.53;4998039;28;20038;-78
2023/05/08 08:42:56;;;;;;;5.82;2.97;;;;;;;12.47;100.00;100838.31;4998050;28;20513;-77
2023/05/08 08:45:22;;;;;;;7.22;3.25;;;;;;;12.31;100.00;100821.66;5007771;28;20093;-77
2023/05/08 08:47:51;;;;;;;5.93;4.50;;;;;;;11.73;100.00;100766.38;5002111;28;20668;-77
2023/05/08 08:50:18;;;;;;;5.80;4.03;;;;;;;11.36;100.00;100712.03;5010657;28;20148;-76
2023/05/08 08:52:59;;;;;;;6.30;3.53;;;;;;;11.69;100.00;100767.25;5022513;28;20579;-77
2023/05/08 08:55:25;;;;;;;12.85;6.03;;;;;;;11.48;100.00;100737.44;5022192;28;20136;-75
2023/05/08 08:58:14;;;;;;;9.18;5.93;;;;;;;11.38;100.00;100733.06;5015768;28;20437;-74
2023/05/08 09:00:40;;;;;;;8.70;4.47;;;;;;;11.13;100.00;100700.59;5015146;28;20050;-75
2023/05/08 09:03:06;;;;;;;10.18;5.20;;;;;;;11.35;100.00;100688.38;5016786;28;20141;-75
2023/05/08 09:05:33;;;;;;;8.35;4.68;;;;;;;10.54;100.00;100555.22;5022874;28;20080;-73
2023/05/08 09:08:00;;;;;;;6.85;4.50;;;;;;;11.39;100.00;100675.25;5017337;28;20037;-74
2023/05/08 09:10:25;;;;;;;7.30;3.55;;;;;;;10.59;100.00;100545.59;5015345;28;20050;-74
2023/05/08 09:12:51;;;;;;;7.18;4.78;;;;;;;10.86;100.00;100583.25;4993737;28;20032;-77
2023/05/08 09:15:18;;;;;;;8.40;4.70;;;;;;;11.38;100.00;100656.88;5001445;28;20177;-74
2023/05/08 09:17:43;;;;;;;13.40;5.20;;;;;;;11.26;100.00;100622.69;4998853;28;20755;-75
2023/05/08 09:20:13;;;;;;;5.50;3.80;;;;;;;11.21;100.00;100662.06;5000722;28;20046;-75
2023/05/08 09:22:40;;;;;;;7.78;5.90;;;;;;;10.33;100.00;100541.16;5001690;28;20163;-76
2023/05/08 09:25:05;;;;;;;5.88;4.70;;;;;;;10.81;100.00;100619.13;5003292;28;20044;-76
2023/05/08 09:27:31;;;;;;;7.28;5.72;;;;;;;11.04;100.00;100633.16;5001611;28;20069;-74
2023/05/08 09:29:58;;;;;;;8.10;4.97;;;;;;;10.85;100.00;100581.50;4999511;28;20058;-76
2023/05/08 09:32:23;;;;;;;11.60;4.90;;;;;;;10.69;100.00;100597.22;5009311;28;20119;-74
2023/05/08 09:34:52;;;;;;;5.30;4.30;;;;;;;10.93;100.00;100603.38;5004702;28;20486;-77
2023/05/08 09:37:18;;;;;;;7.53;5.93;;;;;;;11.28;100.00;100619.19;5009312;28;20082;-77
2023/05/08 09:39:45;;;;;;;7.85;4.10;;;;;;;10.40;100.00;100507.97;5019093;28;20041;-75
2023/05/08 09:42:11;;;;;;;6.75;4.75;;;;;;;11.22;100.00;100594.69;5039321;28;20046;-78
2023/05/08 09:44:52;;;;;;;6.03;3.60;;;;;;;10.44;100.00;100545.53;5025050;28;20120;-75
2023/05/08 09:47:24;;;;;;;6.75;5.28;;;;;;;10.97;100.00;100628.78;5026512;28;20172;-75
2023/05/08 09:50:02;;;;;;;7.05;4.90;;;;;;;10.48;100.00;100519.31;5026231;28;20042;-75
2023/05/08 09:52:29;;;;;;;10.32;5.63;;;;;;;10.91;100.00;100594.63;5024406;28;20037;-75
2023/05/08 09:54:59;;;;;;;7.30;4.45;;;;;;;10.44;100.00;100493.97;5026014;28;20037;-75
2023/05/08 09:57:26;;;;;;;6.25;4.20;;;;;;;11.20;100.00;100616.56;5026611;28;20086;-77
2023/05/08 10:00:19;;;;;;;7.13;5.22;;;;;;;10.93;100.00;100601.66;5025333;28;20049;-75
2023/05/08 10:03:01;;;;;;;11.33;6.97;;;;;;;10.50;100.00;100514.97;5014789;28;20045;-76
2023/05/08 10:05:31;;;;;;;7.22;4.95;;;;;;;10.24;100.00;100477.28;5025877;28;20545;-75
2023/05/08 10:07:58;;;;;;;7.00;5.10;;;;;;;10.38;100.00;100506.22;5022127;28;20044;-73
2023/05/08 10:10:32;;;;;;;10.98;5.30;;;;;;;11.03;100.00;100620.94;5016840;28;20060;-72
2023/05/08 10:12:57;;;;;;;13.38;10.45;;;;;;;10.76;100.00;100509.75;5024008;28;20083;-67
2023/05/08 10:15:27;;;;;;;18.77;13.02;;;;;;;12.10;100.00;100601.56;5025932;28;20033;-68
2023/05/08 10:18:04;;;;;;;9.43;5.97;;;;;;;11.14;100.00;100606.06;5025691;28;20056;-78
2023/05/08 10:20:31;;;;;;;10.43;6.95;;;;;;;11.54;100.00;100636.69;5016945;28;20443;-73
2023/05/08 10:22:57;;;;;;;6.95;5.00;;;;;;;11.11;100.00;100647.19;5025856;28;20060;-75
2023/05/08 10:25:24;;;;;;;8.15;5.28;;;;;;;11.22;100.00;100642.84;5025417;28;20121;-75
2023/05/08 10:28:08;;;;;;;6.85;5.32;;;;;;;11.15;100.00;100651.59;5026468;28;20179;-77
2023/05/08 10:30:37;;;;;;;7.38;4.65;;;;;;;10.44;100.00;100516.69;5022242;28;20073;-76
2023/05/08 10:33:09;;;;;;;13.07;8.93;;;;;;;12.42;100.00;100637.44;5019337;28;20325;-75
2023/05/08 10:35:36;;;;;;;9.30;6.40;;;;;;;11.68;100.00;100668.22;5024098;28;20658;-76
2023/05/08 10:38:03;;;;;;;6.05;4.50;;;;;;;10.94;100.00;100655.03;5023924;28;20080;-75
2023/05/08 10:40:28;;;;;;;6.07;4.85;;;;;;;11.00;100.00;100639.28;5015485;28;20136;-75
2023/05/08 10:42:55;;;;;;;5.22;3.97;;;;;;;11.31;100.00;100620.97;5024543;28;20549;-74
2023/05/08 10:45:21;;;;;;;10.93;6.45;;;;;;;12.32;100.00;100589.22;5006170;28;20045;-73
2023/05/08 10:48:17;;;;;;;8.00;4.97;;;;;;;11.33;100.00;100674.34;5001910;28;20072;-73
2023/05/08 10:51:09;;;;;;;7.88;4.45;;;;;;;11.12;100.00;100654.19;5012918;28;20076;-75
2023/05/08 10:53:56;;;;;;;6.15;4.25;;;;;;;11.20;100.00;100650.69;5018668;28;20068;-76
2023/05/08 10:56:26;;;;;;;7.07;4.65;;;;;;;10.43;100.00;100523.69;5026106;28;20394;-71
2023/05/08 10:58:56;;;;;;;7.38;4.70;;;;;;;10.15;100.00;100505.22;5035676;28;20509;-74
2023/05/08 11:01:21;;;;;;;6.57;4.13;;;;;;;11.24;100.00;100643.72;5019390;28;20045;-74
2023/05/08 11:03:51;;;;;;;8.77;5.03;;;;;;;10.84;100.00;100642.75;5016183;28;20033;-74
2023/05/08 11:06:17;;;;;;;5.95;3.97;;;;;;;10.04;100.00;100514.78;5014155;28;20557;-76
2023/05/08 11:08:48;;;;;;;6.30;3.72;;;;;;;10.54;100.00;100526.34;5010010;28;20049;-75
2023/05/08 11:11:32;;;;;;;10.90;4.38;;;;;;;10.48;100.00;100508.84;5014520;28;20498;-71
2023/05/08 11:14:06;;;;;;;;;;;;;;;10.99;100.00;100637.53;5029957;28;20132;-75
2023/05/08 11:16:54;;;;;;;10.32;5.85;;;;;;;11.16;100.00;100632.31;5039729;28;19947;-75
2023/05/08 11:19:21;;;;;;;6.53;4.25;;;;;;;10.94;100.00;100636.66;5031289;28;20052;-73
2023/05/08 11:22:11;;;;;;;11.70;4.75;;;;;;;10.92;100.00;100633.16;5019078;28;20026;-74
2023/05/08 11:24:39;;;;;;;8.82;6.38;;;;;;;10.60;100.00;100522.84;5012413;28;20096;-73